INDIA METEOROLOGICAL DEPARTMENT, R.M.C. NEW DELHI
Dated:25 - 6 - 2021
METARS OF ALTERNATE AIRPORTS
Delhi      
VIDP 250600Z 29005KT 4500 HZ NSC 37/18 Q1002 NOSIG=
Lucknow    
VILK 250600Z 09005KT 2500 BR SCT020 FEW030CB BKN100 31/28 Q1001 TEMPO VIS 1500 RA=
Jaipur     
VIJP 250600Z 29010KT 5000 HZ FEW030 SCT100 34/21 Q1003 NOSIG=
Ahmedabad  
COR VAAH 250600Z 27007KT 5000 HZ FEW020 SCT025 32/25 Q1003 NOSIG=
Udaipur    
VAUD 250600Z 18003KT 4000 HZ FEW030 SCT100 32/23 Q1005 NOSIG=
Mumbai     
VABB 250600Z 28014KT 2100 -RA SCT012 SCT015 FEW030CB OVC090 27/25 Q1007 TEMPO 1500 RA=